sensor_id;sensor_type;location;lat;lon;timestamp;P1;durP1;ratioP1;P2;durP2;ratioP2
22363;SDS011;11349;53.412;-1.328;2023-09-19T00:44:47;11.52;;;1.95;;
22363;SDS011;11349;53.412;-1.328;2023-09-19T00:47:16;5.78;;;1.45;;
22363;SDS011;11349;53.412;-1.328;2023-09-19T00:49:46;5.13;;;1.25;;
22363;SDS011;11349;53.412;-1.328;2023-09-19T00:52:14;6.82;;;1.45;;
22363;SDS011;11349;53.412;-1.328;2023-09-19T00:54:41;9.65;;;2.55;;
22363;SDS011;11349;53.412;-1.328;2023-09-19T00:57:07;6.75;;;1.42;;
22363;SDS011;11349;53.412;-1.328;2023-09-19T00:59:34;7.45;;;1.80;;
22363;SDS011;11349;53.412;-1.328;2023-09-19T01:02:01;7.43;;;2.08;;
22363;SDS011;11349;53.412;-1.328;2023-09-19T01:04:28;6.53;;;1.65;;
22363;SDS011;11349;53.412;-1.328;2023-09-19T01:06:54;8.68;;;1.75;;
22363;SDS011;11349;53.412;-1.328;2023-09-19T01:09:20;8.25;;;1.77;;
22363;SDS011;11349;53.412;-1.328;2023-09-19T01:11:47;10.98;;;1.55;;
22363;SDS011;11349;53.412;-1.328;2023-09-19T01:14:20;11.18;;;2.15;;
22363;SDS011;11349;53.412;-1.328;2023-09-19T01:17:34;9.30;;;1.73;;
22363;SDS011;11349;53.412;-1.328;2023-09-19T01:30:58;6.72;;;1.52;;
22363;SDS011;11349;53.412;-1.328;2023-09-19T01:33:28;8.88;;;1.88;;
22363;SDS011;11349;53.412;-1.328;2023-09-19T01:36:16;10.02;;;1.70;;
22363;SDS011;11349;53.412;-1.328;2023-09-19T01:38:41;9.35;;;2.05;;
22363;SDS011;11349;53.412;-1.328;2023-09-19T01:41:10;11.43;;;1.85;;
22363;SDS011;11349;53.412;-1.328;2023-09-19T01:43:43;11.15;;;1.98;;
22363;SDS011;11349;53.412;-1.328;2023-09-19T01:46:15;8.68;;;1.98;;
22363;SDS011;11349;53.412;-1.328;2023-09-19T01:51:41;8.20;;;2.10;;
22363;SDS011;11349;53.412;-1.328;2023-09-19T01:54:31;7.80;;;1.80;;
22363;SDS011;11349;53.412;-1.328;2023-09-19T01:57:27;5.72;;;1.67;;
22363;SDS011;11349;53.412;-1.328;2023-09-19T01:59:57;8.93;;;1.67;;
22363;SDS011;11349;53.412;-1.328;2023-09-19T02:02:41;8.13;;;2.00;;
22363;SDS011;11349;53.412;-1.328;2023-09-19T02:05:10;10.35;;;2.45;;
22363;SDS011;11349;53.412;-1.328;2023-09-19T02:07:37;6.28;;;1.92;;
22363;SDS011;11349;53.412;-1.328;2023-09-19T02:10:05;9.25;;;1.98;;
22363;SDS011;11349;53.412;-1.328;2023-09-19T02:12:32;8.68;;;2.05;;
22363;SDS011;11349;53.412;-1.328;2023-09-19T02:14:58;8.65;;;1.65;;
22363;SDS011;11349;53.412;-1.328;2023-09-19T02:17:24;12.32;;;3.40;;
22363;SDS011;11349;53.412;-1.328;2023-09-19T02:19:53;6.70;;;1.85;;
22363;SDS011;11349;53.412;-1.328;2023-09-19T02:22:20;11.32;;;2.67;;
22363;SDS011;11349;53.412;-1.328;2023-09-19T02:24:49;10.35;;;1.73;;
22363;SDS011;11349;53.412;-1.328;2023-09-19T02:27:16;6.40;;;1.60;;
22363;SDS011;11349;53.412;-1.328;2023-09-19T02:29:42;14.00;;;2.65;;
22363;SDS011;11349;53.412;-1.328;2023-09-19T02:32:08;8.75;;;2.10;;
22363;SDS011;11349;53.412;-1.328;2023-09-19T02:34:34;7.15;;;2.50;;
22363;SDS011;11349;53.412;-1.328;2023-09-19T02:37:04;9.23;;;2.25;;
22363;SDS011;11349;53.412;-1.328;2023-09-19T02:39:33;12.35;;;3.28;;
22363;SDS011;11349;53.412;-1.328;2023-09-19T02:42:00;9.05;;;2.75;;
22363;SDS011;11349;53.412;-1.328;2023-09-19T02:44:26;13.32;;;2.22;;
22363;SDS011;11349;53.412;-1.328;2023-09-19T02:46:52;7.63;;;1.98;;
22363;SDS011;11349;53.412;-1.328;2023-09-19T02:49:18;11.75;;;2.55;;
22363;SDS011;11349;53.412;-1.328;2023-09-19T02:51:44;10.27;;;2.42;;
22363;SDS011;11349;53.412;-1.328;2023-09-19T02:54:10;10.95;;;3.03;;
22363;SDS011;11349;53.412;-1.328;2023-09-19T02:56:36;8.55;;;2.42;;
22363;SDS011;11349;53.412;-1.328;2023-09-19T02:59:03;12.75;;;2.50;;
22363;SDS011;11349;53.412;-1.328;2023-09-19T03:01:29;15.80;;;2.30;;
22363;SDS011;11349;53.412;-1.328;2023-09-19T03:03:54;11.25;;;2.42;;
22363;SDS011;11349;53.412;-1.328;2023-09-19T03:06:21;11.25;;;2.53;;
22363;SDS011;11349;53.412;-1.328;2023-09-19T03:08:47;12.05;;;2.53;;
22363;SDS011;11349;53.412;-1.328;2023-09-19T03:11:14;10.50;;;2.50;;
22363;SDS011;11349;53.412;-1.328;2023-09-19T03:13:41;8.02;;;2.15;;
22363;SDS011;11349;53.412;-1.328;2023-09-19T03:16:07;11.15;;;2.42;;
22363;SDS011;11349;53.412;-1.328;2023-09-19T03:18:34;11.30;;;2.65;;
22363;SDS011;11349;53.412;-1.328;2023-09-19T03:21:00;12.25;;;2.55;;
22363;SDS011;11349;53.412;-1.328;2023-09-19T03:23:26;7.68;;;2.10;;
22363;SDS011;11349;53.412;-1.328;2023-09-19T03:25:53;11.27;;;2.45;;
22363;SDS011;11349;53.412;-1.328;2023-09-19T03:28:19;9.10;;;2.42;;
22363;SDS011;11349;53.412;-1.328;2023-09-19T03:30:46;12.88;;;3.28;;
22363;SDS011;11349;53.412;-1.328;2023-09-19T03:33:25;9.27;;;2.50;;
22363;SDS011;11349;53.412;-1.328;2023-09-19T03:35:52;11.85;;;2.83;;
22363;SDS011;11349;53.412;-1.328;2023-09-19T03:38:18;11.98;;;2.40;;
22363;SDS011;11349;53.412;-1.328;2023-09-19T03:40:45;11.48;;;2.50;;
22363;SDS011;11349;53.412;-1.328;2023-09-19T03:43:10;12.35;;;2.30;;
22363;SDS011;11349;53.412;-1.328;2023-09-19T03:45:36;11.65;;;2.00;;
22363;SDS011;11349;53.412;-1.328;2023-09-19T03:48:08;11.02;;;3.30;;
22363;SDS011;11349;53.412;-1.328;2023-09-19T03:50:34;8.00;;;2.08;;
22363;SDS011;11349;53.412;-1.328;2023-09-19T03:53:00;10.15;;;2.10;;
22363;SDS011;11349;53.412;-1.328;2023-09-19T03:55:25;8.77;;;2.08;;
22363;SDS011;11349;53.412;-1.328;2023-09-19T03:57:52;10.07;;;2.35;;
22363;SDS011;11349;53.412;-1.328;2023-09-19T04:00:18;14.57;;;3.35;;
22363;SDS011;11349;53.412;-1.328;2023-09-19T04:02:47;10.13;;;2.20;;
22363;SDS011;11349;53.412;-1.328;2023-09-19T04:05:13;9.43;;;2.50;;
22363;SDS011;11349;53.412;-1.328;2023-09-19T04:07:39;12.15;;;2.72;;
22363;SDS011;11349;53.412;-1.328;2023-09-19T04:10:05;11.48;;;2.42;;
22363;SDS011;11349;53.412;-1.328;2023-09-19T04:12:33;13.48;;;2.35;;
22363;SDS011;11349;53.412;-1.328;2023-09-19T04:14:59;11.02;;;2.33;;
22363;SDS011;11349;53.412;-1.328;2023-09-19T04:17:25;10.25;;;2.25;;
22363;SDS011;11349;53.412;-1.328;2023-09-19T04:19:51;14.45;;;2.88;;
22363;SDS011;11349;53.412;-1.328;2023-09-19T04:22:16;7.82;;;2.65;;
22363;SDS011;11349;53.412;-1.328;2023-09-19T04:24:42;7.65;;;2.78;;
22363;SDS011;11349;53.412;-1.328;2023-09-19T04:27:08;12.10;;;2.88;;
22363;SDS011;11349;53.412;-1.328;2023-09-19T04:29:34;14.55;;;3.10;;
22363;SDS011;11349;53.412;-1.328;2023-09-19T04:32:00;10.77;;;2.70;;
22363;SDS011;11349;53.412;-1.328;2023-09-19T04:34:29;12.05;;;2.45;;
22363;SDS011;11349;53.412;-1.328;2023-09-19T04:36:55;12.10;;;3.25;;
22363;SDS011;11349;53.412;-1.328;2023-09-19T04:39:23;11.88;;;2.53;;
22363;SDS011;11349;53.412;-1.328;2023-09-19T04:41:51;6.95;;;1.92;;
22363;SDS011;11349;53.412;-1.328;2023-09-19T04:44:17;10.75;;;2.83;;
22363;SDS011;11349;53.412;-1.328;2023-09-19T04:46:43;13.40;;;2.22;;
22363;SDS011;11349;53.412;-1.328;2023-09-19T04:49:11;12.13;;;2.90;;
22363;SDS011;11349;53.412;-1.328;2023-09-19T04:51:37;7.00;;;2.03;;
22363;SDS011;11349;53.412;-1.328;2023-09-19T04:54:03;14.73;;;2.83;;
22363;SDS011;11349;53.412;-1.328;2023-09-19T04:56:29;8.88;;;2.47;;
22363;SDS011;11349;53.412;-1.328;2023-09-19T04:58:55;13.50;;;2.22;;
22363;SDS011;11349;53.412;-1.328;2023-09-19T05:01:21;9.10;;;2.30;;
22363;SDS011;11349;53.412;-1.328;2023-09-19T05:03:48;8.98;;;2.30;;
22363;SDS011;11349;53.412;-1.328;2023-09-19T05:06:18;11.38;;;2.38;;
22363;SDS011;11349;53.412;-1.328;2023-09-19T05:08:46;10.60;;;2.40;;
22363;SDS011;11349;53.412;-1.328;2023-09-19T05:11:18;9.57;;;1.95;;
22363;SDS011;11349;53.412;-1.328;2023-09-19T05:13:47;14.00;;;2.63;;
22363;SDS011;11349;53.412;-1.328;2023-09-19T05:16:12;13.63;;;2.88;;
22363;SDS011;11349;53.412;-1.328;2023-09-19T05:18:38;11.82;;;2.75;;
22363;SDS011;11349;53.412;-1.328;2023-09-19T05:21:04;11.70;;;2.30;;
22363;SDS011;11349;53.412;-1.328;2023-09-19T05:23:30;6.80;;;2.10;;
22363;SDS011;11349;53.412;-1.328;2023-09-19T05:25:56;9.82;;;2.10;;
22363;SDS011;11349;53.412;-1.328;2023-09-19T05:28:25;13.50;;;2.45;;
22363;SDS011;11349;53.412;-1.328;2023-09-19T05:30:52;6.60;;;2.03;;
22363;SDS011;11349;53.412;-1.328;2023-09-19T05:33:18;8.23;;;2.67;;
22363;SDS011;11349;53.412;-1.328;2023-09-19T05:35:44;13.10;;;3.42;;
22363;SDS011;11349;53.412;-1.328;2023-09-19T05:38:12;10.10;;;2.55;;
22363;SDS011;11349;53.412;-1.328;2023-09-19T05:40:39;11.50;;;3.00;;
22363;SDS011;11349;53.412;-1.328;2023-09-19T05:43:07;9.60;;;2.47;;
22363;SDS011;11349;53.412;-1.328;2023-09-19T05:45:34;9.45;;;2.00;;
22363;SDS011;11349;53.412;-1.328;2023-09-19T05:48:07;11.25;;;2.67;;
22363;SDS011;11349;53.412;-1.328;2023-09-19T05:50:34;11.85;;;2.42;;
22363;SDS011;11349;53.412;-1.328;2023-09-19T05:53:01;11.35;;;2.45;;
22363;SDS011;11349;53.412;-1.328;2023-09-19T05:55:27;8.15;;;1.92;;
22363;SDS011;11349;53.412;-1.328;2023-09-19T05:57:53;10.77;;;2.33;;
22363;SDS011;11349;53.412;-1.328;2023-09-19T06:00:19;7.45;;;1.90;;
22363;SDS011;11349;53.412;-1.328;2023-09-19T06:02:54;8.68;;;2.30;;
22363;SDS011;11349;53.412;-1.328;2023-09-19T06:05:22;8.35;;;1.63;;
22363;SDS011;11349;53.412;-1.328;2023-09-19T06:07:49;5.25;;;1.80;;
22363;SDS011;11349;53.412;-1.328;2023-09-19T06:10:15;7.00;;;2.05;;
22363;SDS011;11349;53.412;-1.328;2023-09-19T06:12:42;6.90;;;1.63;;
22363;SDS011;11349;53.412;-1.328;2023-09-19T06:15:09;5.53;;;2.03;;
22363;SDS011;11349;53.412;-1.328;2023-09-19T06:17:40;8.30;;;1.95;;
22363;SDS011;11349;53.412;-1.328;2023-09-19T06:20:11;8.77;;;1.90;;
22363;SDS011;11349;53.412;-1.328;2023-09-19T06:22:40;7.65;;;1.92;;
22363;SDS011;11349;53.412;-1.328;2023-09-19T06:25:07;6.65;;;1.65;;
22363;SDS011;11349;53.412;-1.328;2023-09-19T06:27:40;10.50;;;1.95;;
22363;SDS011;11349;53.412;-1.328;2023-09-19T06:30:09;7.32;;;1.70;;
22363;SDS011;11349;53.412;-1.328;2023-09-19T06:32:39;7.20;;;1.88;;
22363;SDS011;11349;53.412;-1.328;2023-09-19T06:35:09;5.93;;;1.50;;
22363;SDS011;11349;53.412;-1.328;2023-09-19T06:37:38;7.60;;;1.95;;
22363;SDS011;11349;53.412;-1.328;2023-09-19T06:40:08;6.90;;;1.70;;
22363;SDS011;11349;53.412;-1.328;2023-09-19T06:42:39;7.28;;;1.70;;
22363;SDS011;11349;53.412;-1.328;2023-09-19T06:45:31;6.07;;;1.65;;
22363;SDS011;11349;53.412;-1.328;2023-09-19T06:47:57;6.63;;;1.63;;
22363;SDS011;11349;53.412;-1.328;2023-09-19T06:50:25;8.23;;;1.63;;
22363;SDS011;11349;53.412;-1.328;2023-09-19T06:52:52;7.03;;;2.00;;
22363;SDS011;11349;53.412;-1.328;2023-09-19T06:55:20;8.00;;;2.25;;
22363;SDS011;11349;53.412;-1.328;2023-09-19T06:57:50;7.88;;;2.28;;
22363;SDS011;11349;53.412;-1.328;2023-09-19T07:00:16;7.68;;;2.00;;
22363;SDS011;11349;53.412;-1.328;2023-09-19T07:05:32;8.40;;;2.22;;
22363;SDS011;11349;53.412;-1.328;2023-09-19T07:08:02;8.20;;;2.10;;
22363;SDS011;11349;53.412;-1.328;2023-09-19T07:10:29;9.85;;;2.30;;
22363;SDS011;11349;53.412;-1.328;2023-09-19T07:12:59;10.45;;;2.20;;
22363;SDS011;11349;53.412;-1.328;2023-09-19T07:15:35;7.30;;;1.75;;
22363;SDS011;11349;53.412;-1.328;2023-09-19T07:18:04;6.65;;;1.77;;
22363;SDS011;11349;53.412;-1.328;2023-09-19T07:20:31;8.15;;;1.95;;
22363;SDS011;11349;53.412;-1.328;2023-09-19T07:23:00;7.82;;;2.03;;
22363;SDS011;11349;53.412;-1.328;2023-09-19T07:25:27;9.93;;;2.45;;
22363;SDS011;11349;53.412;-1.328;2023-09-19T07:27:56;10.88;;;2.22;;
22363;SDS011;11349;53.412;-1.328;2023-09-19T07:30:25;7.90;;;2.88;;
22363;SDS011;11349;53.412;-1.328;2023-09-19T07:32:51;11.43;;;2.60;;
22363;SDS011;11349;53.412;-1.328;2023-09-19T07:35:17;7.65;;;2.42;;
22363;SDS011;11349;53.412;-1.328;2023-09-19T07:37:46;10.52;;;2.47;;
22363;SDS011;11349;53.412;-1.328;2023-09-19T07:40:17;10.98;;;2.30;;
22363;SDS011;11349;53.412;-1.328;2023-09-19T07:42:43;8.32;;;2.10;;
22363;SDS011;11349;53.412;-1.328;2023-09-19T07:45:09;8.60;;;2.70;;
22363;SDS011;11349;53.412;-1.328;2023-09-19T07:47:48;6.32;;;2.00;;
22363;SDS011;11349;53.412;-1.328;2023-09-19T07:50:19;8.07;;;2.00;;
22363;SDS011;11349;53.412;-1.328;2023-09-19T07:52:45;7.00;;;2.28;;
22363;SDS011;11349;53.412;-1.328;2023-09-19T07:55:11;6.13;;;2.28;;
22363;SDS011;11349;53.412;-1.328;2023-09-19T07:57:41;6.22;;;2.05;;
22363;SDS011;11349;53.412;-1.328;2023-09-19T08:00:08;8.30;;;2.42;;
22363;SDS011;11349;53.412;-1.328;2023-09-19T08:02:38;7.05;;;2.50;;
22363;SDS011;11349;53.412;-1.328;2023-09-19T08:05:14;10.90;;;2.65;;
22363;SDS011;11349;53.412;-1.328;2023-09-19T08:07:41;8.45;;;2.50;;
22363;SDS011;11349;53.412;-1.328;2023-09-19T08:10:08;11.85;;;2.20;;
22363;SDS011;11349;53.412;-1.328;2023-09-19T08:12:42;8.05;;;2.30;;
22363;SDS011;11349;53.412;-1.328;2023-09-19T08:15:20;6.10;;;2.05;;
22363;SDS011;11349;53.412;-1.328;2023-09-19T08:17:46;6.60;;;1.70;;
22363;SDS011;11349;53.412;-1.328;2023-09-19T08:20:13;6.60;;;2.08;;
22363;SDS011;11349;53.412;-1.328;2023-09-19T08:25:19;5.97;;;1.52;;
22363;SDS011;11349;53.412;-1.328;2023-09-19T08:27:46;5.13;;;1.67;;
22363;SDS011;11349;53.412;-1.328;2023-09-19T08:30:17;6.25;;;2.65;;
22363;SDS011;11349;53.412;-1.328;2023-09-19T08:32:45;5.78;;;1.67;;
22363;SDS011;11349;53.412;-1.328;2023-09-19T08:35:13;4.88;;;1.73;;
22363;SDS011;11349;53.412;-1.328;2023-09-19T08:37:39;6.13;;;1.92;;
22363;SDS011;11349;53.412;-1.328;2023-09-19T08:40:05;7.70;;;1.98;;
22363;SDS011;11349;53.412;-1.328;2023-09-19T08:42:55;7.13;;;2.08;;
22363;SDS011;11349;53.412;-1.328;2023-09-19T08:45:21;4.55;;;1.70;;
22363;SDS011;11349;53.412;-1.328;2023-09-19T08:53:15;5.47;;;1.77;;
22363;SDS011;11349;53.412;-1.328;2023-09-19T08:56:06;4.47;;;1.40;;
22363;SDS011;11349;53.412;-1.328;2023-09-19T08:58:41;4.78;;;1.50;;
22363;SDS011;11349;53.412;-1.328;2023-09-19T09:01:16;4.50;;;0.93;;
22363;SDS011;11349;53.412;-1.328;2023-09-19T09:03:49;4.95;;;1.45;;
22363;SDS011;11349;53.412;-1.328;2023-09-19T09:06:17;3.53;;;1.20;;
22363;SDS011;11349;53.412;-1.328;2023-09-19T09:08:48;2.78;;;1.30;;
22363;SDS011;11349;53.412;-1.328;2023-09-19T09:11:16;4.43;;;0.90;;
22363;SDS011;11349;53.412;-1.328;2023-09-19T09:13:46;3.60;;;1.02;;
22363;SDS011;11349;53.412;-1.328;2023-09-19T09:16:12;4.05;;;1.42;;
22363;SDS011;11349;53.412;-1.328;2023-09-19T09:18:42;4.47;;;1.15;;
22363;SDS011;11349;53.412;-1.328;2023-09-19T09:21:09;4.00;;;1.00;;
22363;SDS011;11349;53.412;-1.328;2023-09-19T09:23:35;3.25;;;0.98;;
22363;SDS011;11349;53.412;-1.328;2023-09-19T09:26:03;2.15;;;0.70;;
22363;SDS011;11349;53.412;-1.328;2023-09-19T09:28:31;2.63;;;0.95;;
22363;SDS011;11349;53.412;-1.328;2023-09-19T09:30:59;1.45;;;0.50;;
22363;SDS011;11349;53.412;-1.328;2023-09-19T09:33:33;3.13;;;0.98;;
22363;SDS011;11349;53.412;-1.328;2023-09-19T09:36:00;2.80;;;0.75;;
22363;SDS011;11349;53.412;-1.328;2023-09-19T09:38:49;2.08;;;0.80;;
22363;SDS011;11349;53.412;-1.328;2023-09-19T09:41:15;1.77;;;0.60;;
22363;SDS011;11349;53.412;-1.328;2023-09-19T09:43:52;2.63;;;0.82;;
22363;SDS011;11349;53.412;-1.328;2023-09-19T09:46:19;2.25;;;0.63;;
22363;SDS011;11349;53.412;-1.328;2023-09-19T09:48:46;2.30;;;1.00;;
22363;SDS011;11349;53.412;-1.328;2023-09-19T09:51:50;1.42;;;0.40;;
22363;SDS011;11349;53.412;-1.328;2023-09-19T09:54:30;3.03;;;0.75;;
22363;SDS011;11349;53.412;-1.328;2023-09-19T09:57:05;2.67;;;0.55;;
22363;SDS011;11349;53.412;-1.328;2023-09-19T09:59:49;2.55;;;0.50;;
22363;SDS011;11349;53.412;-1.328;2023-09-19T10:02:28;1.58;;;0.50;;
22363;SDS011;11349;53.412;-1.328;2023-09-19T10:04:58;1.70;;;0.60;;
22363;SDS011;11349;53.412;-1.328;2023-09-19T10:07:35;2.00;;;0.50;;
22363;SDS011;11349;53.412;-1.328;2023-09-19T10:10:05;0.88;;;0.47;;
22363;SDS011;11349;53.412;-1.328;2023-09-19T10:12:42;2.53;;;0.45;;
22363;SDS011;11349;53.412;-1.328;2023-09-19T10:15:14;1.40;;;0.40;;
22363;SDS011;11349;53.412;-1.328;2023-09-19T10:17:42;1.58;;;0.32;;
22363;SDS011;11349;53.412;-1.328;2023-09-19T10:20:14;1.77;;;0.55;;
22363;SDS011;11349;53.412;-1.328;2023-09-19T10:23:07;1.70;;;0.20;;
22363;SDS011;11349;53.412;-1.328;2023-09-19T10:25:43;3.05;;;0.40;;
22363;SDS011;11349;53.412;-1.328;2023-09-19T10:28:12;3.63;;;0.40;;
22363;SDS011;11349;53.412;-1.328;2023-09-19T10:30:41;2.40;;;0.68;;
22363;SDS011;11349;53.412;-1.328;2023-09-19T10:33:12;0.95;;;0.20;;
22363;SDS011;11349;53.412;-1.328;2023-09-19T10:35:44;1.08;;;0.30;;
22363;SDS011;11349;53.412;-1.328;2023-09-19T10:38:11;2.13;;;0.30;;
22363;SDS011;11349;53.412;-1.328;2023-09-19T10:40:38;0.65;;;0.20;;
22363;SDS011;11349;53.412;-1.328;2023-09-19T10:43:16;0.57;;;0.20;;
22363;SDS011;11349;53.412;-1.328;2023-09-19T10:45:43;0.82;;;0.38;;
22363;SDS011;11349;53.412;-1.328;2023-09-19T10:48:20;1.38;;;0.30;;
22363;SDS011;11349;53.412;-1.328;2023-09-19T10:51:04;0.82;;;0.20;;
22363;SDS011;11349;53.412;-1.328;2023-09-19T10:53:45;0.43;;;0.10;;
22363;SDS011;11349;53.412;-1.328;2023-09-19T10:56:26;1.30;;;0.30;;
22363;SDS011;11349;53.412;-1.328;2023-09-19T11:01:44;1.77;;;0.40;;
22363;SDS011;11349;53.412;-1.328;2023-09-19T11:04:32;1.75;;;1.27;;
22363;SDS011;11349;53.412;-1.328;2023-09-19T11:07:07;1.75;;;0.40;;
22363;SDS011;11349;53.412;-1.328;2023-09-19T11:15:06;0.57;;;0.20;;
22363;SDS011;11349;53.412;-1.328;2023-09-19T11:30:36;1.23;;;0.28;;
22363;SDS011;11349;53.412;-1.328;2023-09-19T11:33:18;1.23;;;0.47;;
22363;SDS011;11349;53.412;-1.328;2023-09-19T11:36:03;0.88;;;0.30;;
22363;SDS011;11349;53.412;-1.328;2023-09-19T11:41:56;0.95;;;0.22;;
22363;SDS011;11349;53.412;-1.328;2023-09-19T11:47:14;0.50;;;0.25;;
22363;SDS011;11349;53.412;-1.328;2023-09-19T11:49:30;1.55;;;0.35;;
22363;SDS011;11349;53.412;-1.328;2023-09-19T11:51:58;0.77;;;0.25;;
22363;SDS011;11349;53.412;-1.328;2023-09-19T11:54:33;1.73;;;0.28;;
22363;SDS011;11349;53.412;-1.328;2023-09-19T11:57:01;1.48;;;0.43;;
22363;SDS011;11349;53.412;-1.328;2023-09-19T11:59:28;1.10;;;0.32;;
22363;SDS011;11349;53.412;-1.328;2023-09-19T12:04:41;1.10;;;0.40;;
22363;SDS011;11349;53.412;-1.328;2023-09-19T12:07:13;0.50;;;0.20;;
22363;SDS011;11349;53.412;-1.328;2023-09-19T12:10:22;0.10;;;0.10;;
22363;SDS011;11349;53.412;-1.328;2023-09-19T12:12:30;1.63;;;0.40;;
22363;SDS011;11349;53.412;-1.328;2023-09-19T12:14:58;0.75;;;0.20;;
22363;SDS011;11349;53.412;-1.328;2023-09-19T12:17:37;0.75;;;0.30;;
22363;SDS011;11349;53.412;-1.328;2023-09-19T12:20:13;0.80;;;0.20;;
22363;SDS011;11349;53.412;-1.328;2023-09-19T12:22:39;0.55;;;0.22;;
22363;SDS011;11349;53.412;-1.328;2023-09-19T12:25:09;1.45;;;0.20;;
22363;SDS011;11349;53.412;-1.328;2023-09-19T12:27:43;1.67;;;0.20;;
22363;SDS011;11349;53.412;-1.328;2023-09-19T12:30:13;0.43;;;0.20;;
22363;SDS011;11349;53.412;-1.328;2023-09-19T12:32:40;0.75;;;0.10;;
22363;SDS011;11349;53.412;-1.328;2023-09-19T12:35:07;2.40;;;0.40;;
22363;SDS011;11349;53.412;-1.328;2023-09-19T12:37:36;0.80;;;0.30;;
22363;SDS011;11349;53.412;-1.328;2023-09-19T12:40:08;0.50;;;0.15;;
22363;SDS011;11349;53.412;-1.328;2023-09-19T12:42:47;2.17;;;0.13;;
22363;SDS011;11349;53.412;-1.328;2023-09-19T12:45:14;1.17;;;0.17;;
22363;SDS011;11349;53.412;-1.328;2023-09-19T12:53:35;0.40;;;0.20;;
22363;SDS011;11349;53.412;-1.328;2023-09-19T12:56:07;1.92;;;0.30;;
22363;SDS011;11349;53.412;-1.328;2023-09-19T12:58:55;0.65;;;0.10;;
22363;SDS011;11349;53.412;-1.328;2023-09-19T13:01:24;2.42;;;0.30;;
22363;SDS011;11349;53.412;-1.328;2023-09-19T13:06:38;0.30;;;0.20;;
22363;SDS011;11349;53.412;-1.328;2023-09-19T13:09:08;0.65;;;0.17;;
22363;SDS011;11349;53.412;-1.328;2023-09-19T13:11:38;0.95;;;0.20;;
22363;SDS011;11349;53.412;-1.328;2023-09-19T13:25:15;2.35;;;0.20;;
22363;SDS011;11349;53.412;-1.328;2023-09-19T13:27:45;0.60;;;0.30;;
22363;SDS011;11349;53.412;-1.328;2023-09-19T13:30:25;0.47;;;0.20;;
22363;SDS011;11349;53.412;-1.328;2023-09-19T13:32:52;0.85;;;0.20;;
22363;SDS011;11349;53.412;-1.328;2023-09-19T13:35:30;0.47;;;0.13;;
22363;SDS011;11349;53.412;-1.328;2023-09-19T13:37:56;0.82;;;0.30;;
22363;SDS011;11349;53.412;-1.328;2023-09-19T13:40:22;1.10;;;0.20;;
22363;SDS011;11349;53.412;-1.328;2023-09-19T13:42:48;1.10;;;0.45;;
22363;SDS011;11349;53.412;-1.328;2023-09-19T13:45:13;1.25;;;0.20;;
22363;SDS011;11349;53.412;-1.328;2023-09-19T13:47:42;1.67;;;0.22;;
22363;SDS011;11349;53.412;-1.328;2023-09-19T13:50:08;1.98;;;0.40;;
22363;SDS011;11349;53.412;-1.328;2023-09-19T13:52:34;1.25;;;0.43;;
22363;SDS011;11349;53.412;-1.328;2023-09-19T13:55:00;2.75;;;0.63;;
22363;SDS011;11349;53.412;-1.328;2023-09-19T13:57:26;2.22;;;0.60;;
22363;SDS011;11349;53.412;-1.328;2023-09-19T13:59:52;1.58;;;0.40;;
22363;SDS011;11349;53.412;-1.328;2023-09-19T14:02:19;4.93;;;0.95;;
22363;SDS011;11349;53.412;-1.328;2023-09-19T14:04:56;3.25;;;0.77;;
22363;SDS011;11349;53.412;-1.328;2023-09-19T14:07:23;2.90;;;0.60;;
22363;SDS011;11349;53.412;-1.328;2023-09-19T14:09:48;2.55;;;0.50;;
22363;SDS011;11349;53.412;-1.328;2023-09-19T14:12:14;1.55;;;0.52;;
22363;SDS011;11349;53.412;-1.328;2023-09-19T14:14:40;2.42;;;0.75;;
22363;SDS011;11349;53.412;-1.328;2023-09-19T14:17:07;2.15;;;0.50;;
22363;SDS011;11349;53.412;-1.328;2023-09-19T14:19:34;1.65;;;0.43;;
22363;SDS011;11349;53.412;-1.328;2023-09-19T14:22:02;1.02;;;0.60;;
22363;SDS011;11349;53.412;-1.328;2023-09-19T14:24:32;2.42;;;0.35;;
22363;SDS011;11349;53.412;-1.328;2023-09-19T14:26:58;3.97;;;0.52;;
22363;SDS011;11349;53.412;-1.328;2023-09-19T14:29:24;2.00;;;0.77;;
22363;SDS011;11349;53.412;-1.328;2023-09-19T14:31:50;2.20;;;0.50;;
22363;SDS011;11349;53.412;-1.328;2023-09-19T14:34:17;2.15;;;0.90;;
22363;SDS011;11349;53.412;-1.328;2023-09-19T14:36:44;1.88;;;0.55;;
22363;SDS011;11349;53.412;-1.328;2023-09-19T14:39:10;4.68;;;0.93;;
22363;SDS011;11349;53.412;-1.328;2023-09-19T14:41:36;3.95;;;0.90;;
22363;SDS011;11349;53.412;-1.328;2023-09-19T14:44:04;6.32;;;1.38;;
22363;SDS011;11349;53.412;-1.328;2023-09-19T14:46:30;4.65;;;1.33;;
22363;SDS011;11349;53.412;-1.328;2023-09-19T14:48:56;3.70;;;0.90;;
22363;SDS011;11349;53.412;-1.328;2023-09-19T14:51:30;7.32;;;1.10;;
22363;SDS011;11349;53.412;-1.328;2023-09-19T14:53:56;5.32;;;1.17;;
22363;SDS011;11349;53.412;-1.328;2023-09-19T14:56:22;5.50;;;1.20;;
22363;SDS011;11349;53.412;-1.328;2023-09-19T14:58:50;7.95;;;2.03;;
22363;SDS011;11349;53.412;-1.328;2023-09-19T15:01:16;5.28;;;1.40;;
22363;SDS011;11349;53.412;-1.328;2023-09-19T15:03:42;7.15;;;1.60;;
22363;SDS011;11349;53.412;-1.328;2023-09-19T15:06:09;5.53;;;1.52;;
22363;SDS011;11349;53.412;-1.328;2023-09-19T15:08:39;8.73;;;1.80;;
22363;SDS011;11349;53.412;-1.328;2023-09-19T15:11:10;4.80;;;1.30;;
22363;SDS011;11349;53.412;-1.328;2023-09-19T15:13:38;8.13;;;2.45;;
22363;SDS011;11349;53.412;-1.328;2023-09-19T15:16:05;9.80;;;1.80;;
22363;SDS011;11349;53.412;-1.328;2023-09-19T15:18:38;8.63;;;2.40;;
22363;SDS011;11349;53.412;-1.328;2023-09-19T15:21:08;9.32;;;1.48;;
22363;SDS011;11349;53.412;-1.328;2023-09-19T15:23:35;8.98;;;1.67;;
22363;SDS011;11349;53.412;-1.328;2023-09-19T15:26:13;8.98;;;2.00;;
22363;SDS011;11349;53.412;-1.328;2023-09-19T15:28:45;10.73;;;2.90;;
22363;SDS011;11349;53.412;-1.328;2023-09-19T15:31:12;9.13;;;2.70;;
22363;SDS011;11349;53.412;-1.328;2023-09-19T15:33:38;8.63;;;2.00;;
22363;SDS011;11349;53.412;-1.328;2023-09-19T15:36:07;7.38;;;1.92;;
22363;SDS011;11349;53.412;-1.328;2023-09-19T15:41:37;10.32;;;2.20;;
22363;SDS011;11349;53.412;-1.328;2023-09-19T15:44:04;10.60;;;2.50;;
22363;SDS011;11349;53.412;-1.328;2023-09-19T15:46:36;11.52;;;2.40;;
22363;SDS011;11349;53.412;-1.328;2023-09-19T15:49:02;10.80;;;2.35;;
22363;SDS011;11349;53.412;-1.328;2023-09-19T15:51:28;9.77;;;2.08;;
22363;SDS011;11349;53.412;-1.328;2023-09-19T15:53:54;7.07;;;1.77;;
22363;SDS011;11349;53.412;-1.328;2023-09-19T15:56:22;9.95;;;2.95;;
22363;SDS011;11349;53.412;-1.328;2023-09-19T15:58:48;4.93;;;1.30;;
22363;SDS011;11349;53.412;-1.328;2023-09-19T16:01:15;7.43;;;1.67;;
22363;SDS011;11349;53.412;-1.328;2023-09-19T16:03:48;7.43;;;1.80;;
22363;SDS011;11349;53.412;-1.328;2023-09-19T16:06:19;8.07;;;1.70;;
22363;SDS011;11349;53.412;-1.328;2023-09-19T16:08:49;7.65;;;1.98;;
22363;SDS011;11349;53.412;-1.328;2023-09-19T16:11:16;6.65;;;1.65;;
22363;SDS011;11349;53.412;-1.328;2023-09-19T16:13:43;6.65;;;1.40;;
22363;SDS011;11349;53.412;-1.328;2023-09-19T16:16:13;5.35;;;1.20;;
22363;SDS011;11349;53.412;-1.328;2023-09-19T16:18:45;5.85;;;2.15;;
22363;SDS011;11349;53.412;-1.328;2023-09-19T16:21:13;5.80;;;1.35;;
22363;SDS011;11349;53.412;-1.328;2023-09-19T16:23:39;10.45;;;2.45;;
22363;SDS011;11349;53.412;-1.328;2023-09-19T16:26:06;5.35;;;1.38;;
22363;SDS011;11349;53.412;-1.328;2023-09-19T16:28:38;5.43;;;1.83;;
22363;SDS011;11349;53.412;-1.328;2023-09-19T16:31:05;6.68;;;1.83;;
22363;SDS011;11349;53.412;-1.328;2023-09-19T16:33:32;3.88;;;1.10;;
22363;SDS011;11349;53.412;-1.328;2023-09-19T16:35:59;7.78;;;1.83;;
22363;SDS011;11349;53.412;-1.328;2023-09-19T16:38:26;5.80;;;1.88;;
22363;SDS011;11349;53.412;-1.328;2023-09-19T16:40:55;5.75;;;1.27;;
22363;SDS011;11349;53.412;-1.328;2023-09-19T16:43:23;5.78;;;1.42;;
22363;SDS011;11349;53.412;-1.328;2023-09-19T16:48:22;4.75;;;1.48;;